createdAt,value
2023-03-28T00:12:41.128Z,9.32
2023-03-28T00:15:09.712Z,9.32
2023-03-28T00:17:37.856Z,9.32
2023-03-28T00:20:10.299Z,9.31
2023-03-28T00:22:39.175Z,9.32
2023-03-28T00:25:08.401Z,9.26
2023-03-28T00:27:37.297Z,9.27
2023-03-28T00:30:08.388Z,9.32
2023-03-28T00:32:37.198Z,9.40
2023-03-28T00:35:06.217Z,9.50
2023-03-28T00:37:34.537Z,9.59
2023-03-28T00:40:07.439Z,9.54
2023-03-28T00:42:37.670Z,9.45
2023-03-28T00:45:11.226Z,9.30
2023-03-28T00:47:44.812Z,9.27
2023-03-28T00:50:20.222Z,9.30
2023-03-28T00:52:52.231Z,9.32
2023-03-28T00:55:23.203Z,9.37
2023-03-28T00:57:53.087Z,9.40
2023-03-28T01:00:24.305Z,9.39
2023-03-28T01:02:56.479Z,9.42
2023-03-28T01:05:27.518Z,9.45
2023-03-28T01:08:01.047Z,9.42
2023-03-28T01:10:29.480Z,9.39
2023-03-28T01:12:58.663Z,9.37
2023-03-28T01:15:30.691Z,9.37
2023-03-28T01:18:03.173Z,9.25
2023-03-28T01:20:55.379Z,9.23
2023-03-28T01:23:45.811Z,9.23
2023-03-28T01:26:43.002Z,9.27
2023-03-28T01:29:37.286Z,9.32
2023-03-28T01:32:40.408Z,9.36
2023-03-28T01:35:36.708Z,9.41
2023-03-28T01:38:13.645Z,9.42
2023-03-28T01:40:50.176Z,9.39
2023-03-28T01:43:32.514Z,9.41
2023-03-28T01:46:07.877Z,9.47
2023-03-28T01:48:45.602Z,9.46
2023-03-28T01:51:25.248Z,9.50
2023-03-28T01:54:00.831Z,9.51
2023-03-28T01:56:36.105Z,9.53
2023-03-28T01:59:10.552Z,9.50
2023-03-28T02:02:02.817Z,9.52
2023-03-28T02:04:33.794Z,9.52
2023-03-28T02:07:02.865Z,9.49
2023-03-28T02:09:39.225Z,9.45
2023-03-28T02:12:30.950Z,9.40
2023-03-28T02:15:14.195Z,9.36
2023-03-28T02:18:22.037Z,9.30
2023-03-28T02:21:02.573Z,9.20
2023-03-28T02:23:59.681Z,9.15
2023-03-28T02:26:47.935Z,9.14
2023-03-28T02:29:30.692Z,9.07
2023-03-28T02:32:17.894Z,8.97
2023-03-28T02:34:49.097Z,8.94
2023-03-28T02:37:29.888Z,8.86
2023-03-28T02:40:10.408Z,8.78
2023-03-28T02:43:08.833Z,8.68
2023-03-28T02:46:10.494Z,8.55
2023-03-28T02:48:52.074Z,8.50
2023-03-28T02:51:30.180Z,8.39
2023-03-28T02:54:07.527Z,8.30
2023-03-28T02:56:44.465Z,8.22
2023-03-28T02:59:31.740Z,8.24
2023-03-28T03:02:00.911Z,8.24
2023-03-28T03:04:28.936Z,8.31
2023-03-28T03:06:57.545Z,8.41
2023-03-28T03:09:27.105Z,8.51
2023-03-28T03:11:55.212Z,8.63
2023-03-28T03:14:23.528Z,8.68
2023-03-28T03:16:55.115Z,8.77
2023-03-28T03:19:23.189Z,8.80
2023-03-28T03:21:51.825Z,8.80
2023-03-28T03:24:22.667Z,8.78
2023-03-28T03:26:50.929Z,8.76
2023-03-28T03:29:19.005Z,8.74
2023-03-28T03:31:47.325Z,8.68
2023-03-28T03:34:46.050Z,8.56
2023-03-28T03:37:14.405Z,8.52
2023-03-28T03:39:42.446Z,8.46
2023-03-28T03:42:10.875Z,8.46
2023-03-28T03:44:38.995Z,8.35
2023-03-28T03:47:07.340Z,8.28
2023-03-28T03:49:35.427Z,8.28
2023-03-28T03:52:06.901Z,8.27
2023-03-28T03:54:37.957Z,8.20
2023-03-28T03:57:06.470Z,8.07
2023-03-28T03:59:34.818Z,8.06
2023-03-28T04:02:03.034Z,8.01
2023-03-28T04:04:42.601Z,7.90
2023-03-28T04:07:26.042Z,7.84
2023-03-28T04:09:56.863Z,7.77
2023-03-28T04:12:27.655Z,7.67
2023-03-28T04:14:57.378Z,7.57
2023-03-28T04:17:52.758Z,7.52
2023-03-28T04:20:24.192Z,7.50
2023-03-28T04:23:05.859Z,7.45
2023-03-28T04:25:34.286Z,7.49
2023-03-28T04:28:09.423Z,7.50
2023-03-28T04:30:59.328Z,7.57
2023-03-28T04:33:53.915Z,7.56
2023-03-28T04:36:25.684Z,7.61
2023-03-28T04:39:03.998Z,7.50
2023-03-28T04:41:55.632Z,7.61
2023-03-28T04:44:56.436Z,7.68
2023-03-28T04:47:25.494Z,7.77
2023-03-28T04:49:54.226Z,7.84
2023-03-28T04:52:22.365Z,7.91
2023-03-28T04:54:52.027Z,7.99
2023-03-28T04:57:23.387Z,8.07
2023-03-28T04:59:56.135Z,8.11
2023-03-28T05:02:44.593Z,8.14
2023-03-28T05:05:16.012Z,8.13
2023-03-28T05:07:44.195Z,8.14
2023-03-28T05:10:14.179Z,8.13
2023-03-28T05:12:42.959Z,8.02
2023-03-28T05:15:11.920Z,7.96
2023-03-28T05:18:00.534Z,7.89
2023-03-28T05:20:32.314Z,7.84
2023-03-28T05:23:01.327Z,7.85
2023-03-28T05:25:31.505Z,7.89
2023-03-28T05:27:59.925Z,7.93
2023-03-28T05:30:28.185Z,7.89
2023-03-28T05:32:58.482Z,7.82
2023-03-28T05:35:26.774Z,7.71
2023-03-28T05:37:54.820Z,7.69
2023-03-28T05:40:23.272Z,7.71
2023-03-28T05:42:52.849Z,7.68
2023-03-28T05:45:22.441Z,7.60
2023-03-28T05:48:07.992Z,7.57
2023-03-28T05:50:37.934Z,7.56
2023-03-28T05:53:07.190Z,7.53
2023-03-28T05:55:35.886Z,7.50
2023-03-28T05:58:06.358Z,7.48
2023-03-28T06:00:40.212Z,7.44
2023-03-28T06:03:09.621Z,7.42
2023-03-28T06:05:45.855Z,7.46
2023-03-28T06:08:25.389Z,7.48
2023-03-28T06:10:54.097Z,7.53
2023-03-28T06:16:17.182Z,7.49
2023-03-28T06:18:46.277Z,7.56
2023-03-28T06:21:14.687Z,7.64
2023-03-28T06:23:43.120Z,7.77
2023-03-28T06:26:21.968Z,7.83
2023-03-28T06:28:50.625Z,7.91
2023-03-28T06:31:38.217Z,7.99
2023-03-28T06:34:06.684Z,8.12
2023-03-28T06:36:38.219Z,8.18
2023-03-28T06:39:06.712Z,8.15
2023-03-28T06:41:35.166Z,8.13
2023-03-28T06:44:04.904Z,8.13
2023-03-28T06:47:10.289Z,8.16
2023-03-28T06:49:38.630Z,8.22
2023-03-28T06:52:39.297Z,8.29
2023-03-28T06:55:10.703Z,8.43
2023-03-28T06:57:39.021Z,8.53
2023-03-28T07:00:16.765Z,8.66
2023-03-28T07:03:05.674Z,8.81
2023-03-28T07:05:39.071Z,8.93
2023-03-28T07:08:08.545Z,9.04
2023-03-28T07:10:37.551Z,9.11
2023-03-28T07:13:06.427Z,9.26
2023-03-28T07:15:36.344Z,9.37
2023-03-28T07:18:10.594Z,9.45
2023-03-28T07:20:40.307Z,9.62
2023-03-28T07:23:08.889Z,9.79
2023-03-28T07:25:37.159Z,9.90
2023-03-28T07:28:05.982Z,10.15
2023-03-28T07:30:35.306Z,10.65
2023-03-28T07:33:16.648Z,11.22
2023-03-28T07:35:50.016Z,11.81
2023-03-28T07:38:18.350Z,12.08
2023-03-28T07:40:50.768Z,12.45
2023-03-28T07:43:19.136Z,12.89
2023-03-28T07:45:48.843Z,12.96
2023-03-28T07:48:17.266Z,13.14
2023-03-28T07:50:45.736Z,13.41
2023-03-28T07:53:18.525Z,13.51
2023-03-28T07:55:54.270Z,13.51
2023-03-28T07:58:27.115Z,13.49
2023-03-28T08:01:06.120Z,13.47
2023-03-28T08:03:47.491Z,13.56
2023-03-28T08:06:30.988Z,13.75
2023-03-28T08:09:02.863Z,14.03
2023-03-28T08:11:44.304Z,14.07
2023-03-28T08:14:14.563Z,13.86
2023-03-28T08:16:43.443Z,13.77
2023-03-28T08:19:12.237Z,13.60
2023-03-28T08:22:02.783Z,13.50
2023-03-28T08:24:37.869Z,13.55
2023-03-28T08:27:12.634Z,13.63
2023-03-28T08:29:42.629Z,13.63
2023-03-28T08:32:11.930Z,13.59
2023-03-28T08:34:41.046Z,13.63
2023-03-28T08:37:22.848Z,13.47
2023-03-28T08:39:53.856Z,13.61
2023-03-28T08:42:39.138Z,13.66
2023-03-28T08:45:35.019Z,13.77
2023-03-28T08:48:18.945Z,13.81
2023-03-28T08:50:51.338Z,14.04
2023-03-28T08:53:24.612Z,14.20
2023-03-28T08:55:57.178Z,14.23
2023-03-28T08:58:31.747Z,14.07
2023-03-28T09:01:00.367Z,13.93
2023-03-28T09:03:28.898Z,13.80
2023-03-28T09:06:09.119Z,13.83
2023-03-28T09:09:05.191Z,13.85
2023-03-28T09:11:48.194Z,14.00
2023-03-28T09:14:43.836Z,14.06
2023-03-28T09:17:22.753Z,14.13
2023-03-28T09:20:11.462Z,13.95
2023-03-28T09:23:19.046Z,13.88
2023-03-28T09:26:17.151Z,14.17
2023-03-28T09:28:53.521Z,14.62
2023-03-28T09:31:27.215Z,14.71
2023-03-28T09:34:00.452Z,14.73
2023-03-28T09:36:49.135Z,14.70
2023-03-28T09:39:28.331Z,14.96
2023-03-28T09:42:02.501Z,15.01
2023-03-28T09:45:00.783Z,15.14
2023-03-28T09:47:48.980Z,15.19
2023-03-28T09:50:21.448Z,15.65
2023-03-28T09:52:57.175Z,15.75
2023-03-28T09:55:27.598Z,15.65
2023-03-28T09:58:05.359Z,15.70
2023-03-28T10:00:43.905Z,15.65
2023-03-28T10:03:52.602Z,15.42
2023-03-28T10:06:26.737Z,15.22
2023-03-28T10:09:10.741Z,15.07
2023-03-28T10:11:54.641Z,14.88
2023-03-28T10:14:33.550Z,14.73
2023-03-28T10:17:06.568Z,14.59
2023-03-28T10:19:44.856Z,14.67
2023-03-28T10:22:26.227Z,14.80
2023-03-28T10:24:56.521Z,14.77
2023-03-28T10:27:28.749Z,14.94
2023-03-28T10:29:58.362Z,15.73
2023-03-28T10:32:33.613Z,16.65
2023-03-28T10:35:25.063Z,16.82
2023-03-28T10:38:05.600Z,16.59
2023-03-28T10:41:02.461Z,16.06
2023-03-28T10:43:51.330Z,15.70
2023-03-28T10:46:41.220Z,15.19
2023-03-28T10:49:47.284Z,14.91
2023-03-28T10:52:35.952Z,14.89
2023-03-28T10:55:13.677Z,14.95
2023-03-28T10:58:12.610Z,14.86
2023-03-28T11:00:56.074Z,14.70
2023-03-28T11:03:44.164Z,14.64
2023-03-28T11:06:21.047Z,14.42
2023-03-28T11:09:02.268Z,14.13
2023-03-28T11:12:06.549Z,13.97
2023-03-28T11:14:48.562Z,14.24
2023-03-28T11:17:26.145Z,14.48
2023-03-28T11:20:30.592Z,14.35
2023-03-28T11:23:24.370Z,14.50
2023-03-28T11:26:14.552Z,15.46
2023-03-28T11:29:20.128Z,15.36
2023-03-28T11:32:01.237Z,15.28
2023-03-28T11:34:33.973Z,15.14
2023-03-28T11:37:07.516Z,14.78
2023-03-28T11:39:43.177Z,14.54
2023-03-28T11:42:22.692Z,14.42
2023-03-28T11:45:02.291Z,14.43
2023-03-28T11:47:36.630Z,14.51
2023-03-28T11:50:18.083Z,14.63
2023-03-28T11:53:04.505Z,14.66
2023-03-28T11:55:49.264Z,14.78
2023-03-28T11:58:38.379Z,14.71
2023-03-28T12:01:11.978Z,14.80
2023-03-28T12:03:52.140Z,14.79
2023-03-28T12:06:27.162Z,14.86
2023-03-28T12:09:00.360Z,15.18
2023-03-28T12:11:40.858Z,15.68
2023-03-28T12:14:27.115Z,15.68
2023-03-28T12:16:59.944Z,15.81
2023-03-28T12:19:34.943Z,15.76
2023-03-28T12:22:16.600Z,16.03
2023-03-28T12:24:57.024Z,16.42
2023-03-28T12:27:49.459Z,16.61
2023-03-28T12:30:27.434Z,16.80
2023-03-28T12:33:07.356Z,17.03
2023-03-28T12:35:49.515Z,17.49
2023-03-28T12:38:32.361Z,17.93
2023-03-28T12:41:19.629Z,18.20
2023-03-28T12:43:53.071Z,18.17
2023-03-28T12:46:30.966Z,18.06
2023-03-28T12:49:02.153Z,17.93
2023-03-28T12:51:36.747Z,17.88
2023-03-28T12:54:22.423Z,17.51
2023-03-28T12:57:02.948Z,17.69
2023-03-28T12:59:49.257Z,17.47
2023-03-28T13:02:40.821Z,17.65
2023-03-28T13:05:18.209Z,17.66
2023-03-28T13:08:00.467Z,17.47
2023-03-28T13:10:35.842Z,17.29
2023-03-28T13:13:17.918Z,17.01
2023-03-28T13:16:14.575Z,16.81
2023-03-28T13:18:48.239Z,16.47
2023-03-28T13:21:43.811Z,16.79
2023-03-28T13:24:33.421Z,17.09
2023-03-28T13:27:03.097Z,16.93
2023-03-28T13:29:49.167Z,17.24
2023-03-28T13:32:20.426Z,17.06
2023-03-28T13:34:50.260Z,17.05
2023-03-28T13:37:25.535Z,16.94
2023-03-28T13:39:59.356Z,17.00
2023-03-28T13:42:30.960Z,17.20
2023-03-28T13:45:02.839Z,17.28
2023-03-28T13:47:37.428Z,17.02
2023-03-28T13:50:15.846Z,16.66
2023-03-28T13:52:44.363Z,16.62
2023-03-28T13:55:22.038Z,16.59
2023-03-28T13:57:51.456Z,16.39
2023-03-28T14:00:24.060Z,16.16
2023-03-28T14:02:55.159Z,16.21
2023-03-28T14:05:25.271Z,16.32
2023-03-28T14:07:55.517Z,16.33
2023-03-28T14:10:31.944Z,16.32
2023-03-28T14:13:03.914Z,16.44
2023-03-28T14:15:39.009Z,16.42
2023-03-28T14:18:13.533Z,16.74
2023-03-28T14:20:42.423Z,16.75
2023-03-28T14:23:28.421Z,16.67
2023-03-28T14:25:58.898Z,16.40
2023-03-28T14:28:30.384Z,16.31
2023-03-28T14:30:59.316Z,16.24
2023-03-28T14:33:37.409Z,16.42
2023-03-28T14:36:06.956Z,16.26
2023-03-28T14:38:38.285Z,16.28
2023-03-28T14:41:15.187Z,16.55
2023-03-28T14:43:43.561Z,16.65
2023-03-28T14:46:12.567Z,16.71
2023-03-28T14:48:43.874Z,16.74
2023-03-28T14:51:14.852Z,17.13
2023-03-28T14:53:46.474Z,17.41
2023-03-28T14:56:19.418Z,17.26
2023-03-28T14:58:50.093Z,17.14
2023-03-28T15:01:23.090Z,16.78
2023-03-28T15:03:58.821Z,16.62
2023-03-28T15:06:29.498Z,16.14
2023-03-28T15:09:00.479Z,16.19
2023-03-28T15:11:32.646Z,16.29
2023-03-28T15:14:04.904Z,16.14
2023-03-28T15:16:45.985Z,15.65
2023-03-28T15:19:23.893Z,15.65
2023-03-28T15:21:56.674Z,15.66
2023-03-28T15:24:27.773Z,15.67
2023-03-28T15:26:59.166Z,15.76
2023-03-28T15:29:27.915Z,15.70
2023-03-28T15:32:02.813Z,15.56
2023-03-28T15:34:33.281Z,15.29
2023-03-28T15:37:03.593Z,15.43
2023-03-28T15:39:33.964Z,15.43
2023-03-28T15:42:11.782Z,15.25
2023-03-28T15:44:41.465Z,15.14
2023-03-28T15:47:14.404Z,14.94
2023-03-28T15:49:44.069Z,15.18
2023-03-28T15:52:18.833Z,15.24
2023-03-28T15:54:52.705Z,15.33
2023-03-28T15:57:22.964Z,15.22
2023-03-28T15:59:52.383Z,15.14
2023-03-28T16:02:30.464Z,14.98
2023-03-28T16:05:02.825Z,15.33
2023-03-28T16:07:35.998Z,15.44
2023-03-28T16:10:04.982Z,15.15
2023-03-28T16:12:42.631Z,15.09
2023-03-28T16:15:34.220Z,15.14
2023-03-28T16:18:14.898Z,15.14
2023-03-28T16:20:52.432Z,15.31
2023-03-28T16:23:21.178Z,15.46
2023-03-28T16:25:49.655Z,15.56
2023-03-28T16:28:19.599Z,15.54
2023-03-28T16:30:47.984Z,15.51
2023-03-28T16:33:17.089Z,15.37
2023-03-28T16:35:45.866Z,15.42
2023-03-28T16:38:15.614Z,15.23
2023-03-28T16:40:45.433Z,14.99
2023-03-28T16:43:15.542Z,15.15
2023-03-28T16:45:46.556Z,15.03
2023-03-28T16:48:15.133Z,14.86
2023-03-28T16:50:49.333Z,14.74
2023-03-28T16:53:19.102Z,14.60
2023-03-28T16:55:47.358Z,14.59
2023-03-28T16:58:15.656Z,14.54
2023-03-28T17:00:46.474Z,14.52
2023-03-28T17:03:15.910Z,14.50
2023-03-28T17:05:45.556Z,14.48
2023-03-28T17:08:13.939Z,14.34
2023-03-28T17:10:44.512Z,14.44
2023-03-28T17:13:12.812Z,14.53
2023-03-28T17:15:42.360Z,14.54
2023-03-28T17:18:11.434Z,14.39
2023-03-28T17:20:39.783Z,14.39
2023-03-28T17:23:11.241Z,14.35
2023-03-28T17:25:53.947Z,14.33
2023-03-28T17:28:24.592Z,14.40
2023-03-28T17:30:53.593Z,14.27
2023-03-28T17:33:22.513Z,14.24
2023-03-28T17:35:51.742Z,14.30
2023-03-28T17:38:20.037Z,14.08
2023-03-28T17:40:49.071Z,14.14
2023-03-28T17:43:17.626Z,14.19
2023-03-28T17:45:47.320Z,14.09
2023-03-28T17:48:15.583Z,14.10
2023-03-28T17:50:51.852Z,14.09
2023-03-28T17:53:20.181Z,13.91
2023-03-28T17:55:48.510Z,13.82
2023-03-28T17:58:16.855Z,13.76
2023-03-28T18:00:46.968Z,13.61
2023-03-28T18:03:15.355Z,13.71
2023-03-28T18:06:03.953Z,13.59
2023-03-28T18:08:33.402Z,13.43
2023-03-28T18:11:02.116Z,13.39
2023-03-28T18:13:30.464Z,13.38
2023-03-28T18:16:00.465Z,13.37
2023-03-28T18:18:28.897Z,13.38
2023-03-28T18:20:57.338Z,13.37
2023-03-28T18:23:25.730Z,13.25
2023-03-28T18:25:54.258Z,13.11
2023-03-28T18:28:23.493Z,13.20
2023-03-28T18:30:52.406Z,13.31
2023-03-28T18:33:22.861Z,13.33
2023-03-28T18:35:51.347Z,13.36
2023-03-28T18:38:19.691Z,13.46
2023-03-28T18:40:53.665Z,13.38
2023-03-28T18:43:22.566Z,13.34
2023-03-28T18:45:55.179Z,13.19
2023-03-28T18:48:25.069Z,13.17
2023-03-28T18:50:53.433Z,13.07
2023-03-28T18:53:22.512Z,13.03
2023-03-28T18:55:52.594Z,12.93
2023-03-28T18:58:23.328Z,12.90
2023-03-28T19:00:57.144Z,12.72
2023-03-28T19:03:27.991Z,12.76
2023-03-28T19:05:57.679Z,12.78
2023-03-28T19:08:26.534Z,12.73
2023-03-28T19:10:55.148Z,12.75
2023-03-28T19:13:23.528Z,12.64
2023-03-28T19:15:59.495Z,12.47
2023-03-28T19:18:29.935Z,12.26
2023-03-28T19:20:58.636Z,12.26
2023-03-28T19:23:28.553Z,12.38
2023-03-28T19:25:57.065Z,12.47
2023-03-28T19:28:25.696Z,12.48
2023-03-28T19:31:01.682Z,12.40
2023-03-28T19:33:31.688Z,12.26
2023-03-28T19:36:01.649Z,12.30
2023-03-28T19:38:30.973Z,12.42
2023-03-28T19:40:59.666Z,12.37
2023-03-28T19:43:28.795Z,12.29
2023-03-28T19:46:02.217Z,12.21
2023-03-28T19:48:32.516Z,12.15
2023-03-28T19:51:00.961Z,12.04
2023-03-28T19:53:29.515Z,11.83
2023-03-28T19:55:59.800Z,11.81
2023-03-28T19:58:29.573Z,11.72
2023-03-28T20:00:58.141Z,11.86
2023-03-28T20:03:26.903Z,11.94
2023-03-28T20:05:56.588Z,11.96
2023-03-28T20:08:24.907Z,11.93
2023-03-28T20:10:53.851Z,11.71
2023-03-28T20:13:22.098Z,11.58
2023-03-28T20:15:50.396Z,11.64
2023-03-28T20:18:20.689Z,11.75
2023-03-28T20:20:53.678Z,11.79
2023-03-28T20:23:24.736Z,11.85
2023-03-28T20:25:54.409Z,11.92
2023-03-28T20:28:25.050Z,11.96
2023-03-28T20:30:54.634Z,11.88
2023-03-28T20:33:23.142Z,11.85
2023-03-28T20:35:55.465Z,11.77
2023-03-28T20:38:25.649Z,11.74
2023-03-28T20:41:05.828Z,11.51
2023-03-28T20:43:36.853Z,11.53
2023-03-28T20:46:05.352Z,11.37
2023-03-28T20:48:36.780Z,11.38
2023-03-28T20:51:05.823Z,11.31
2023-03-28T20:53:35.673Z,11.44
2023-03-28T20:56:06.378Z,11.34
2023-03-28T20:58:35.538Z,11.43
2023-03-28T21:01:04.096Z,11.43
2023-03-28T21:03:46.771Z,11.45
2023-03-28T21:06:16.135Z,11.31
2023-03-28T21:08:47.379Z,11.43
2023-03-28T21:11:16.339Z,11.48
2023-03-28T21:13:44.883Z,11.56
2023-03-28T21:16:15.261Z,11.51
2023-03-28T21:18:43.791Z,11.56
2023-03-28T21:21:13.921Z,11.56
2023-03-28T21:23:42.806Z,11.44
2023-03-28T21:26:13.882Z,11.46
2023-03-28T21:28:42.186Z,11.44
2023-03-28T21:31:13.270Z,11.42
2023-03-28T21:33:42.792Z,11.43
2023-03-28T21:36:12.911Z,11.49
2023-03-28T21:38:41.715Z,11.52
2023-03-28T21:41:11.307Z,11.58
2023-03-28T21:43:41.177Z,11.60
2023-03-28T21:46:11.345Z,11.58
2023-03-28T21:48:39.908Z,11.59
2023-03-28T21:51:08.613Z,11.62
2023-03-28T21:53:38.649Z,11.53
2023-03-28T21:56:08.145Z,11.56
2023-03-28T21:58:36.384Z,11.49
2023-03-28T22:01:06.842Z,11.43
2023-03-28T22:03:37.672Z,11.25
2023-03-28T22:06:06.849Z,11.23
2023-03-28T22:08:35.144Z,11.28
2023-03-28T22:11:04.592Z,11.32
2023-03-28T22:13:33.156Z,11.34
2023-03-28T22:16:01.419Z,11.40
2023-03-28T22:18:31.218Z,11.31
2023-03-28T22:21:02.663Z,11.37
2023-03-28T22:23:31.663Z,11.42
2023-03-28T22:25:59.988Z,11.42
2023-03-28T22:28:28.285Z,11.49
2023-03-28T22:30:57.388Z,11.48
2023-03-28T22:33:25.985Z,11.49
2023-03-28T22:35:55.664Z,11.57
2023-03-28T22:38:23.979Z,11.60
2023-03-28T22:40:52.315Z,11.64
2023-03-28T22:43:20.497Z,11.66
2023-03-28T22:45:48.905Z,11.70
2023-03-28T22:48:17.260Z,11.72
2023-03-28T22:50:47.308Z,11.72
2023-03-28T22:53:17.861Z,11.73
2023-03-28T22:55:46.369Z,11.71
2023-03-28T22:58:14.709Z,11.68
2023-03-28T23:00:43.902Z,11.63
2023-03-28T23:03:12.331Z,11.67
2023-03-28T23:05:40.819Z,11.68
2023-03-28T23:08:09.201Z,11.71
2023-03-28T23:10:38.945Z,11.66
2023-03-28T23:13:08.512Z,11.75
2023-03-28T23:15:37.167Z,11.72
2023-03-28T23:18:08.104Z,11.83
2023-03-28T23:20:37.374Z,11.84
2023-03-28T23:23:05.665Z,11.84
2023-03-28T23:25:34.539Z,11.81
2023-03-28T23:28:04.217Z,11.91
2023-03-28T23:30:32.483Z,11.97
2023-03-28T23:33:00.839Z,11.90
2023-03-28T23:35:29.197Z,11.92
2023-03-28T23:37:57.493Z,12.01
2023-03-28T23:40:25.727Z,12.04
2023-03-28T23:42:54.022Z,11.98
2023-03-28T23:45:24.247Z,12.01
2023-03-28T23:47:52.607Z,12.05
2023-03-28T23:50:20.974Z,11.97
2023-03-28T23:52:49.297Z,11.96
2023-03-28T23:55:17.645Z,12.01
2023-03-28T23:57:45.953Z,12.00
